createdAt,value
2023-03-08T00:01:43.605Z,6.20
2023-03-08T00:04:11.197Z,8.02
2023-03-08T00:06:38.025Z,9.77
2023-03-08T00:09:04.854Z,6.25
2023-03-08T00:11:31.618Z,5.30
2023-03-08T00:13:58.565Z,5.17
2023-03-08T00:16:25.820Z,6.72
2023-03-08T00:18:52.615Z,8.90
2023-03-08T00:21:19.381Z,3.88
2023-03-08T00:23:46.524Z,4.05
2023-03-08T00:26:13.972Z,8.68
2023-03-08T00:28:41.359Z,5.57
2023-03-08T00:31:11.015Z,6.05
2023-03-08T00:33:37.835Z,7.53
2023-03-08T00:36:13.606Z,7.68
2023-03-08T00:38:40.666Z,6.40
2023-03-08T00:41:07.437Z,5.60
2023-03-08T00:43:34.326Z,8.68
2023-03-08T00:46:01.394Z,3.97
2023-03-08T00:48:28.252Z,6.57
2023-03-08T00:50:55.294Z,4.85
2023-03-08T00:53:22.056Z,6.15
2023-03-08T00:55:50.320Z,7.05
2023-03-08T00:58:17.513Z,5.13
2023-03-08T01:00:44.576Z,8.50
2023-03-08T01:03:11.675Z,4.80
2023-03-08T01:05:44.121Z,8.73
2023-03-08T01:08:11.677Z,6.30
2023-03-08T01:10:38.442Z,8.77
2023-03-08T01:13:07.456Z,8.02
2023-03-08T01:15:38.697Z,7.93
2023-03-08T01:18:06.544Z,6.47
2023-03-08T01:23:00.788Z,7.45
2023-03-08T01:25:27.935Z,9.23
2023-03-08T01:27:54.728Z,7.63
2023-03-08T01:30:21.683Z,9.38
2023-03-08T01:32:48.537Z,6.03
2023-03-08T01:35:15.528Z,8.25
2023-03-08T01:37:42.394Z,6.13
2023-03-08T01:40:10.379Z,8.15
2023-03-08T01:42:39.122Z,7.82
2023-03-08T01:45:26.971Z,10.73
2023-03-08T01:47:53.728Z,5.17
2023-03-08T01:50:20.833Z,5.82
2023-03-08T01:52:51.789Z,7.50
2023-03-08T01:55:19.527Z,7.18
2023-03-08T01:57:52.195Z,9.23
2023-03-08T02:00:22.245Z,8.73
2023-03-08T02:02:55.029Z,7.68
2023-03-08T02:05:22.313Z,7.75
2023-03-08T02:07:49.140Z,6.40
2023-03-08T02:10:17.300Z,7.18
2023-03-08T02:12:44.721Z,6.70
2023-03-08T02:15:14.555Z,7.87
2023-03-08T02:17:42.887Z,9.13
2023-03-08T02:20:15.778Z,7.90
2023-03-08T02:22:44.541Z,8.00
2023-03-08T02:25:23.758Z,6.70
2023-03-08T02:27:52.572Z,7.10
2023-03-08T02:30:25.851Z,8.73
2023-03-08T02:32:52.642Z,8.35
2023-03-08T02:35:19.574Z,8.68
2023-03-08T02:37:46.545Z,10.52
2023-03-08T02:40:13.980Z,12.57
2023-03-08T02:42:40.773Z,8.23
2023-03-08T02:45:08.626Z,9.48
2023-03-08T02:47:35.552Z,10.07
2023-03-08T02:50:02.385Z,9.85
2023-03-08T02:55:15.957Z,11.18
2023-03-08T03:00:29.380Z,9.60
2023-03-08T03:05:44.496Z,8.88
2023-03-08T03:10:58.948Z,8.95
2023-03-08T03:13:25.714Z,8.02
2023-03-08T03:15:52.453Z,8.75
2023-03-08T03:18:19.233Z,9.70
2023-03-08T03:20:45.990Z,11.07
2023-03-08T03:23:12.769Z,8.88
2023-03-08T03:25:39.535Z,8.10
2023-03-08T03:28:06.277Z,13.25
2023-03-08T03:30:33.172Z,9.38
2023-03-08T03:32:59.923Z,11.25
2023-03-08T03:35:26.697Z,10.07
2023-03-08T03:37:53.452Z,8.27
2023-03-08T03:40:20.308Z,9.80
2023-03-08T03:42:49.197Z,10.57
2023-03-08T03:45:15.944Z,10.50
2023-03-08T03:47:42.712Z,12.88
2023-03-08T03:50:10.497Z,10.25
2023-03-08T03:52:37.233Z,9.13
2023-03-08T03:55:04.341Z,11.13
2023-03-08T03:57:31.082Z,12.63
2023-03-08T04:02:44.635Z,12.87
2023-03-08T04:07:58.780Z,17.67
2023-03-08T04:13:12.600Z,17.80
2023-03-08T04:15:39.369Z,15.07
2023-03-08T04:18:06.153Z,13.88
2023-03-08T04:20:32.975Z,13.43
2023-03-08T04:22:59.725Z,15.07
2023-03-08T04:25:26.487Z,18.88
2023-03-08T04:27:53.255Z,15.33
2023-03-08T04:30:20.097Z,14.88
2023-03-08T04:32:46.859Z,16.40
2023-03-08T04:35:13.575Z,15.27
2023-03-08T04:37:40.312Z,12.20
2023-03-08T04:40:07.863Z,12.23
2023-03-08T04:42:34.733Z,13.07
2023-03-08T04:45:01.507Z,15.40
2023-03-08T04:47:28.472Z,11.90
2023-03-08T04:49:55.244Z,12.30
2023-03-08T04:52:22.071Z,15.77
2023-03-08T04:57:35.523Z,14.20
2023-03-08T05:02:49.320Z,12.57
2023-03-08T05:08:03.510Z,10.50
2023-03-08T05:13:20.651Z,9.52
2023-03-08T05:15:47.458Z,8.60
2023-03-08T05:18:14.220Z,10.57
2023-03-08T05:20:41.118Z,10.07
2023-03-08T05:23:07.909Z,10.23
2023-03-08T05:25:34.656Z,10.10
2023-03-08T05:28:01.434Z,11.52
2023-03-08T05:30:28.192Z,10.32
2023-03-08T05:32:54.929Z,10.23
2023-03-08T05:35:21.701Z,12.25
2023-03-08T05:37:48.455Z,12.00
2023-03-08T05:40:15.270Z,9.35
2023-03-08T05:42:42.022Z,10.90
2023-03-08T05:45:09.316Z,11.98
2023-03-08T05:50:22.733Z,10.45
2023-03-08T05:55:36.129Z,13.82
2023-03-08T06:00:49.599Z,11.95
2023-03-08T06:03:16.512Z,11.77
2023-03-08T06:05:43.390Z,10.73
2023-03-08T06:08:10.159Z,13.60
2023-03-08T06:10:36.941Z,12.27
2023-03-08T06:13:03.713Z,15.45
2023-03-08T06:15:30.465Z,17.80
2023-03-08T06:17:57.234Z,14.20
2023-03-08T06:20:24.024Z,17.55
2023-03-08T06:22:50.808Z,15.13
2023-03-08T06:25:19.332Z,14.82
2023-03-08T06:27:47.469Z,17.27
2023-03-08T06:30:14.392Z,13.98
2023-03-08T06:32:41.220Z,15.27
2023-03-08T06:37:55.123Z,17.85
2023-03-08T06:42:44.357Z,0
2023-03-08T06:43:08.536Z,15.43
2023-03-08T06:45:38.384Z,30.35
2023-03-08T06:50:52.065Z,13.27
2023-03-08T06:56:07.431Z,27.33
2023-03-08T07:01:22.298Z,12.57
2023-03-08T07:03:49.148Z,12.85
2023-03-08T07:06:16.024Z,11.40
2023-03-08T07:08:42.924Z,11.27
2023-03-08T07:11:09.977Z,10.75
2023-03-08T07:13:38.254Z,11.13
2023-03-08T07:16:10.840Z,10.97
2023-03-08T07:21:25.029Z,16.27
2023-03-08T07:23:52.386Z,10.02
2023-03-08T07:26:19.239Z,11.55
2023-03-08T07:28:49.441Z,10.43
2023-03-08T07:31:16.240Z,13.75
2023-03-08T07:33:42.990Z,13.18
2023-03-08T07:36:09.952Z,11.25
2023-03-08T07:38:36.778Z,10.23
2023-03-08T07:41:03.708Z,11.60
2023-03-08T07:43:30.585Z,8.70
2023-03-08T07:46:00.619Z,14.15
2023-03-08T07:48:27.535Z,10.93
2023-03-08T07:50:54.395Z,9.60
2023-03-08T07:53:21.152Z,12.30
2023-03-08T07:55:47.918Z,11.93
2023-03-08T07:58:14.674Z,9.35
2023-03-08T08:00:41.450Z,8.43
2023-03-08T08:03:08.264Z,9.68
2023-03-08T08:05:36.185Z,10.48
2023-03-08T08:08:03.274Z,8.20
2023-03-08T08:13:16.754Z,11.82
2023-03-08T08:18:30.238Z,7.70
2023-03-08T08:21:05.820Z,11.05
2023-03-08T08:23:33.013Z,10.80
2023-03-08T08:26:00.305Z,8.60
2023-03-08T08:31:17.450Z,6.15
2023-03-08T08:33:44.560Z,8.00
2023-03-08T08:36:14.926Z,7.10
2023-03-08T08:38:41.786Z,6.30
2023-03-08T08:43:55.924Z,8.00
2023-03-08T08:48:49.313Z,5.85
2023-03-08T08:51:16.138Z,6.10
2023-03-08T08:56:30.057Z,6.70
2023-03-08T09:01:46.368Z,5.63
2023-03-08T09:04:14.628Z,6.47
2023-03-08T09:06:41.599Z,7.47
2023-03-08T09:09:08.953Z,11.32
2023-03-08T09:11:39.830Z,7.07
2023-03-08T09:11:58.520Z,0
2023-03-08T09:16:58.689Z,7.47
2023-03-08T09:22:12.328Z,7.22
2023-03-08T09:24:39.149Z,8.00
2023-03-08T09:27:06.780Z,8.85
2023-03-08T09:29:33.677Z,5.60
2023-03-08T09:32:00.612Z,6.53
2023-03-08T09:34:27.480Z,5.68
2023-03-08T09:36:54.227Z,4.82
2023-03-08T09:39:21.085Z,5.57
2023-03-08T09:41:50.898Z,4.95
2023-03-08T09:44:39.620Z,5.43
2023-03-08T09:47:32.645Z,5.90
2023-03-08T09:50:25.314Z,6.10
2023-03-08T09:56:05.317Z,6.32
2023-03-08T09:58:49.386Z,4.70
2023-03-08T10:01:27.291Z,5.27
2023-03-08T10:04:03.459Z,5.00
2023-03-08T10:06:36.258Z,5.30
2023-03-08T10:13:02.440Z,6.82
2023-03-08T10:15:32.090Z,5.57
2023-03-08T10:18:09.675Z,5.87
2023-03-08T10:20:38.091Z,5.43
2023-03-08T10:26:05.748Z,7.65
2023-03-08T10:31:26.499Z,7.07
2023-03-08T10:34:18.225Z,4.47
2023-03-08T10:39:57.069Z,7.55
2023-03-08T10:40:09.427Z,0
2023-03-08T10:42:26.940Z,5.22
2023-03-08T10:45:00.572Z,5.80
2023-03-08T10:50:25.692Z,5.60
2023-03-08T10:55:47.178Z,5.40
2023-03-08T10:58:39.179Z,4.57
2023-03-08T11:04:16.224Z,4.90
2023-03-08T11:06:43.715Z,5.70
2023-03-08T11:09:29.534Z,7.20
2023-03-08T11:14:44.974Z,5.15
2023-03-08T11:23:16.676Z,5.30
2023-03-08T11:32:09.894Z,4.45
2023-03-08T11:35:08.960Z,4.55
2023-03-08T11:37:50.530Z,8.18
2023-03-08T11:40:28.440Z,7.95
2023-03-08T11:43:17.492Z,5.75
2023-03-08T11:46:07.636Z,9.93
2023-03-08T11:49:14.235Z,6.80
2023-03-08T11:51:55.293Z,4.20
2023-03-08T11:54:43.776Z,7.45
2023-03-08T11:57:13.680Z,5.18
2023-03-08T11:59:49.578Z,5.72
2023-03-08T12:02:23.693Z,5.30
2023-03-08T12:05:07.821Z,9.13
2023-03-08T12:07:39.794Z,5.97
2023-03-08T12:16:26.981Z,6.70
2023-03-08T12:19:09.059Z,6.47
2023-03-08T12:21:41.973Z,9.90
2023-03-08T12:24:20.965Z,6.05
2023-03-08T12:27:09.758Z,7.82
2023-03-08T12:29:43.373Z,4.30
2023-03-08T12:32:13.295Z,6.25
2023-03-08T12:34:43.662Z,4.60
2023-03-08T12:37:24.094Z,4.10
2023-03-08T12:42:50.436Z,4.57
2023-03-08T12:45:19.920Z,4.07
2023-03-08T12:48:20.594Z,5.60
2023-03-08T12:51:17.706Z,4.40
2023-03-08T12:53:50.394Z,5.10
2023-03-08T12:56:29.929Z,4.37
2023-03-08T13:01:57.077Z,7.80
2023-03-08T13:04:42.099Z,5.00
2023-03-08T13:07:27.020Z,7.95
2023-03-08T13:10:01.615Z,6.43
2023-03-08T13:12:49.733Z,5.85
2023-03-08T13:13:40.437Z,0
2023-03-08T13:15:16.525Z,11.27
2023-03-08T13:18:06.113Z,11.43
2023-03-08T13:21:00.710Z,10.45
2023-03-08T13:23:38.251Z,11.45
2023-03-08T13:26:37.709Z,10.57
2023-03-08T13:28:50.666Z,0
2023-03-08T13:29:19.779Z,11.90
2023-03-08T13:31:48.049Z,10.98
2023-03-08T13:34:34.023Z,7.20
2023-03-08T13:37:00.948Z,8.18
2023-03-08T13:42:17.070Z,6.93
2023-03-08T13:47:37.608Z,6.40
2023-03-08T13:50:05.817Z,5.00
2023-03-08T13:52:36.616Z,6.00
2023-03-08T13:55:07.099Z,4.60
2023-03-08T13:57:36.818Z,6.70
2023-03-08T14:00:19.187Z,5.30
2023-03-08T14:05:41.703Z,4.80
2023-03-08T14:08:19.772Z,5.10
2023-03-08T14:10:50.010Z,5.37
2023-03-08T14:16:22.815Z,7.10
2023-03-08T14:18:49.808Z,7.68
2023-03-08T14:21:18.323Z,5.70
2023-03-08T14:23:51.662Z,4.35
2023-03-08T14:26:30.004Z,6.17
2023-03-08T14:29:24.405Z,4.90
2023-03-08T14:32:01.702Z,5.38
2023-03-08T14:33:44.811Z,0
2023-03-08T14:34:36.019Z,5.18
2023-03-08T14:37:06.494Z,4.55
2023-03-08T14:39:35.719Z,4.13
2023-03-08T14:45:05.950Z,4.35
2023-03-08T14:50:34.414Z,5.78
2023-03-08T14:53:02.984Z,3.90
2023-03-08T14:55:35.888Z,3.25
2023-03-08T14:58:12.571Z,3.88
2023-03-08T14:59:29.172Z,0
2023-03-08T15:00:49.930Z,6.00
2023-03-08T15:03:16.807Z,5.32
2023-03-08T15:05:43.700Z,3.72
2023-03-08T15:08:11.849Z,4.90
2023-03-08T15:10:40.289Z,5.35
2023-03-08T15:16:01.712Z,4.60
2023-03-08T15:18:28.493Z,5.50
2023-03-08T15:20:55.276Z,4.70
2023-03-08T15:23:27.663Z,5.57
2023-03-08T15:28:41.513Z,4.80
2023-03-08T15:31:09.238Z,5.60
2023-03-08T15:33:36.036Z,6.00
2023-03-08T15:36:02.893Z,5.93
2023-03-08T15:38:29.719Z,4.80
2023-03-08T15:40:56.465Z,4.80
2023-03-08T15:43:23.190Z,4.03
2023-03-08T15:45:49.947Z,3.78
2023-03-08T15:48:18.756Z,4.88
2023-03-08T15:50:46.049Z,3.45
2023-03-08T15:53:18.593Z,4.03
2023-03-08T15:53:38.550Z,0
2023-03-08T15:55:52.914Z,5.75
2023-03-08T15:58:19.714Z,7.33
2023-03-08T16:00:46.456Z,4.13
2023-03-08T16:05:40.986Z,5.68
2023-03-08T16:08:07.722Z,5.30
2023-03-08T16:13:22.147Z,4.60
2023-03-08T16:18:36.938Z,5.57
2023-03-08T16:23:56.153Z,4.82
2023-03-08T16:29:09.640Z,7.10
2023-03-08T16:31:36.501Z,6.97
2023-03-08T16:34:04.237Z,13.35
2023-03-08T16:36:31.858Z,7.07
2023-03-08T16:38:58.999Z,7.00
2023-03-08T16:41:16.122Z,0
2023-03-08T16:41:25.751Z,8.20
2023-03-08T16:43:53.526Z,6.28
2023-03-08T16:46:22.120Z,5.25
2023-03-08T16:48:51.090Z,4.70
2023-03-08T16:51:19.312Z,5.30
2023-03-08T16:53:46.644Z,4.95
2023-03-08T16:56:26.570Z,5.13
2023-03-08T16:57:21.496Z,0
2023-03-08T16:58:55.007Z,6.90
2023-03-08T17:01:22.346Z,4.77
2023-03-08T17:06:39.156Z,4.60
2023-03-08T17:11:53.277Z,7.93
2023-03-08T17:17:06.805Z,6.75
2023-03-08T17:19:33.570Z,4.70
2023-03-08T17:22:00.491Z,4.43
2023-03-08T17:24:27.542Z,5.78
2023-03-08T17:26:54.449Z,4.72
2023-03-08T17:29:21.739Z,4.93
2023-03-08T17:31:48.948Z,4.30
2023-03-08T17:34:16.774Z,4.70
2023-03-08T17:36:43.792Z,4.00
2023-03-08T17:39:10.625Z,5.60
2023-03-08T17:41:37.401Z,4.27
2023-03-08T17:44:04.532Z,4.43
2023-03-08T17:46:31.372Z,5.50
2023-03-08T17:48:58.094Z,5.93
2023-03-08T17:51:28.538Z,4.63
2023-03-08T17:53:55.616Z,7.00
2023-03-08T17:56:25.223Z,7.03
2023-03-08T17:58:52.734Z,5.10
2023-03-08T18:01:22.845Z,5.57
2023-03-08T18:03:50.811Z,5.32
2023-03-08T18:06:27.817Z,4.68
2023-03-08T18:08:55.341Z,4.80
2023-03-08T18:14:12.083Z,4.85
2023-03-08T18:16:39.075Z,6.30
2023-03-08T18:19:06.377Z,6.50
2023-03-08T18:21:16.804Z,0
2023-03-08T18:21:35.382Z,4.90
2023-03-08T18:24:02.795Z,6.47
2023-03-08T18:26:29.625Z,4.22
2023-03-08T18:28:56.521Z,6.40
2023-03-08T18:31:25.506Z,5.90
2023-03-08T18:33:54.675Z,12.57
2023-03-08T18:36:21.906Z,5.75
2023-03-08T18:38:48.674Z,4.90
2023-03-08T18:41:16.976Z,5.20
2023-03-08T18:43:43.783Z,6.70
2023-03-08T18:46:12.620Z,4.20
2023-03-08T18:48:40.278Z,4.88
2023-03-08T18:51:07.244Z,7.33
2023-03-08T18:53:34.002Z,4.80
2023-03-08T18:56:02.585Z,5.57
2023-03-08T18:58:29.368Z,5.35
2023-03-08T19:00:59.679Z,6.25
2023-03-08T19:03:27.628Z,4.00
2023-03-08T19:05:54.432Z,4.95
2023-03-08T19:08:21.379Z,7.22
2023-03-08T19:10:48.226Z,6.82
2023-03-08T19:13:14.980Z,5.00
2023-03-08T19:15:41.729Z,4.93
2023-03-08T19:18:09.719Z,5.45
2023-03-08T19:20:38.014Z,6.90
2023-03-08T19:23:04.796Z,4.60
2023-03-08T19:25:35.602Z,5.80
2023-03-08T19:28:03.114Z,5.85
2023-03-08T19:30:29.882Z,5.85
2023-03-08T19:32:57.043Z,6.70
2023-03-08T19:35:23.812Z,7.35
2023-03-08T19:37:50.795Z,7.63
2023-03-08T19:40:17.808Z,8.20
2023-03-08T19:42:44.646Z,6.88
2023-03-08T19:45:12.217Z,6.70
2023-03-08T19:47:38.994Z,7.03
2023-03-08T19:50:06.112Z,6.20
2023-03-08T19:52:32.910Z,7.35
2023-03-08T19:54:59.673Z,7.00
2023-03-08T20:00:13.569Z,6.18
2023-03-08T20:05:27.096Z,4.47
2023-03-08T20:10:18.935Z,0
2023-03-08T20:10:40.555Z,5.63
2023-03-08T20:13:07.274Z,6.68
2023-03-08T20:15:34.104Z,5.25
2023-03-08T20:18:00.917Z,5.80
2023-03-08T20:20:27.813Z,6.30
2023-03-08T20:22:54.612Z,6.15
2023-03-08T20:25:21.388Z,6.07
2023-03-08T20:27:48.136Z,7.40
2023-03-08T20:30:15.197Z,8.30
2023-03-08T20:32:42.020Z,5.55
2023-03-08T20:35:13.026Z,4.40
2023-03-08T20:37:39.977Z,5.70
2023-03-08T20:40:07.760Z,5.80
2023-03-08T20:42:34.614Z,5.35
2023-03-08T20:45:01.359Z,6.70
2023-03-08T20:47:28.173Z,5.70
2023-03-08T20:49:55.043Z,8.00
2023-03-08T20:52:21.862Z,6.35
2023-03-08T20:54:48.689Z,4.70
2023-03-08T20:57:15.487Z,4.85
2023-03-08T20:59:42.254Z,5.43
2023-03-08T21:04:58.576Z,5.93
2023-03-08T21:10:12.125Z,5.60
2023-03-08T21:15:26.321Z,4.78
2023-03-08T21:17:53.108Z,6.50
2023-03-08T21:20:20.491Z,6.20
2023-03-08T21:22:47.460Z,5.22
2023-03-08T21:25:14.313Z,5.78
2023-03-08T21:27:41.058Z,5.18
2023-03-08T21:30:08.676Z,6.40
2023-03-08T21:32:35.649Z,5.80
2023-03-08T21:35:02.909Z,6.80
2023-03-08T21:37:29.749Z,6.20
2023-03-08T21:39:56.528Z,4.90
2023-03-08T21:42:23.289Z,5.90
2023-03-08T21:44:50.176Z,6.50
2023-03-08T21:47:16.942Z,8.02
2023-03-08T21:49:43.674Z,4.68
2023-03-08T21:52:10.772Z,7.07
2023-03-08T21:54:37.563Z,4.93
2023-03-08T21:59:51.029Z,8.90
2023-03-08T22:05:04.747Z,7.10
2023-03-08T22:10:18.684Z,7.55
2023-03-08T22:12:45.458Z,6.10
2023-03-08T22:15:12.373Z,6.32
2023-03-08T22:17:39.226Z,7.13
2023-03-08T22:20:06.519Z,6.43
2023-03-08T22:22:33.285Z,6.38
2023-03-08T22:25:00.060Z,7.10
2023-03-08T22:27:26.845Z,6.03
2023-03-08T22:32:41.059Z,6.07
2023-03-08T22:37:56.240Z,6.43
2023-03-08T22:43:10.492Z,6.70
2023-03-08T22:45:37.482Z,5.45
2023-03-08T22:48:04.534Z,6.88
2023-03-08T22:50:31.389Z,5.25
2023-03-08T22:51:13.959Z,0
2023-03-08T22:52:58.238Z,6.53
2023-03-08T22:55:25.046Z,6.13
2023-03-08T22:57:51.845Z,5.32
2023-03-08T23:00:18.760Z,7.97
2023-03-08T23:02:46.656Z,6.50
2023-03-08T23:05:16.599Z,7.60
2023-03-08T23:07:43.613Z,6.40
2023-03-08T23:10:11.755Z,6.80
2023-03-08T23:12:39.160Z,6.05
2023-03-08T23:15:07.069Z,7.68
2023-03-08T23:17:34.583Z,5.60
2023-03-08T23:22:28.759Z,6.20
2023-03-08T23:24:55.515Z,6.22
2023-03-08T23:27:22.273Z,6.38
2023-03-08T23:29:52.351Z,6.90
2023-03-08T23:32:19.150Z,8.88
2023-03-08T23:34:46.064Z,7.15
2023-03-08T23:37:12.834Z,6.35
2023-03-08T23:39:39.592Z,7.22
2023-03-08T23:42:06.894Z,5.53
2023-03-08T23:44:33.658Z,7.85
2023-03-08T23:47:00.454Z,5.95
2023-03-08T23:49:27.210Z,8.82
2023-03-08T23:51:53.993Z,5.57
2023-03-08T23:54:20.720Z,6.60
2023-03-08T23:56:07.607Z,0
2023-03-08T23:56:48.559Z,6.68
2023-03-08T23:59:19.214Z,7.85
